sensor_id;sensor_type;location;lat;lon;timestamp;P1;durP1;ratioP1;P2;durP2;ratioP2
47381;SDS011;33128;51.580;5.170;2023-05-10T21:04:14;29.37;;;27.27;;
47381;SDS011;33128;51.580;5.170;2023-05-10T21:06:41;27.13;;;25.33;;
47381;SDS011;33128;51.580;5.170;2023-05-10T21:09:09;27.92;;;25.90;;
47381;SDS011;33128;51.580;5.170;2023-05-10T21:11:34;28.30;;;26.17;;
47381;SDS011;33128;51.580;5.170;2023-05-10T21:14:02;27.60;;;25.73;;
47381;SDS011;33128;51.580;5.170;2023-05-10T21:16:28;27.48;;;25.58;;
47381;SDS011;33128;51.580;5.170;2023-05-10T21:18:54;15.60;;;14.65;;
47381;SDS011;33128;51.580;5.170;2023-05-10T21:21:20;42.53;;;36.97;;
47381;SDS011;33128;51.580;5.170;2023-05-10T21:23:46;35.35;;;32.55;;
47381;SDS011;33128;51.580;5.170;2023-05-10T21:26:15;26.05;;;24.02;;
47381;SDS011;33128;51.580;5.170;2023-05-10T21:28:41;567.10;;;525.63;;
47381;SDS011;33128;51.580;5.170;2023-05-10T21:31:07;792.63;;;727.90;;
47381;SDS011;33128;51.580;5.170;2023-05-10T21:33:33;687.35;;;626.70;;
47381;SDS011;33128;51.580;5.170;2023-05-10T21:36:14;746.22;;;682.13;;
47381;SDS011;33128;51.580;5.170;2023-05-10T21:38:40;748.80;;;686.00;;
47381;SDS011;33128;51.580;5.170;2023-05-10T21:41:08;807.97;;;740.97;;
47381;SDS011;33128;51.580;5.170;2023-05-10T21:43:34;549.38;;;493.80;;
47381;SDS011;33128;51.580;5.170;2023-05-10T21:45:59;727.85;;;665.10;;
47381;SDS011;33128;51.580;5.170;2023-05-10T21:48:29;734.33;;;672.85;;
47381;SDS011;33128;51.580;5.170;2023-05-10T21:50:55;632.22;;;575.10;;
47381;SDS011;33128;51.580;5.170;2023-05-10T21:53:24;704.78;;;644.38;;
47381;SDS011;33128;51.580;5.170;2023-05-10T21:55:49;684.83;;;626.80;;
47381;SDS011;33128;51.580;5.170;2023-05-10T21:58:27;744.08;;;682.15;;
47381;SDS011;33128;51.580;5.170;2023-05-10T22:00:53;645.50;;;588.40;;
47381;SDS011;33128;51.580;5.170;2023-05-10T22:03:18;696.28;;;636.83;;
47381;SDS011;33128;51.580;5.170;2023-05-10T22:05:44;659.03;;;601.47;;
47381;SDS011;33128;51.580;5.170;2023-05-10T22:08:11;754.38;;;689.88;;
47381;SDS011;33128;51.580;5.170;2023-05-10T22:10:37;676.78;;;618.67;;
47381;SDS011;33128;51.580;5.170;2023-05-10T22:13:03;781.00;;;716.50;;
47381;SDS011;33128;51.580;5.170;2023-05-10T22:15:28;734.30;;;672.33;;
47381;SDS011;33128;51.580;5.170;2023-05-10T22:17:56;686.30;;;625.83;;
47381;SDS011;33128;51.580;5.170;2023-05-10T22:20:22;653.20;;;594.10;;
47381;SDS011;33128;51.580;5.170;2023-05-10T22:22:47;665.60;;;605.67;;
47381;SDS011;33128;51.580;5.170;2023-05-10T22:25:13;705.38;;;644.95;;
47381;SDS011;33128;51.580;5.170;2023-05-10T22:27:38;668.72;;;609.20;;
47381;SDS011;33128;51.580;5.170;2023-05-10T22:30:07;720.42;;;658.35;;
47381;SDS011;33128;51.580;5.170;2023-05-10T22:32:33;647.80;;;589.63;;
47381;SDS011;33128;51.580;5.170;2023-05-10T22:34:59;715.55;;;654.55;;
47381;SDS011;33128;51.580;5.170;2023-05-10T22:37:24;708.45;;;645.90;;
47381;SDS011;33128;51.580;5.170;2023-05-10T22:39:50;774.35;;;709.05;;
47381;SDS011;33128;51.580;5.170;2023-05-10T22:42:16;721.92;;;658.75;;
47381;SDS011;33128;51.580;5.170;2023-05-10T22:44:42;701.30;;;640.20;;
47381;SDS011;33128;51.580;5.170;2023-05-10T22:47:18;717.78;;;654.85;;
47381;SDS011;33128;51.580;5.170;2023-05-10T22:49:44;713.55;;;650.55;;
47381;SDS011;33128;51.580;5.170;2023-05-10T22:52:12;770.67;;;703.92;;
47381;SDS011;33128;51.580;5.170;2023-05-10T22:54:37;740.67;;;675.25;;
47381;SDS011;33128;51.580;5.170;2023-05-10T22:57:15;722.25;;;659.03;;
47381;SDS011;33128;51.580;5.170;2023-05-10T22:59:42;742.00;;;677.05;;
47381;SDS011;33128;51.580;5.170;2023-05-10T23:02:08;733.90;;;670.22;;
47381;SDS011;33128;51.580;5.170;2023-05-10T23:04:47;699.15;;;636.38;;
47381;SDS011;33128;51.580;5.170;2023-05-10T23:07:16;740.95;;;676.05;;
47381;SDS011;33128;51.580;5.170;2023-05-10T23:09:42;680.75;;;620.03;;
47381;SDS011;33128;51.580;5.170;2023-05-10T23:12:20;761.40;;;696.22;;
47381;SDS011;33128;51.580;5.170;2023-05-10T23:14:47;729.08;;;665.47;;
47381;SDS011;33128;51.580;5.170;2023-05-10T23:17:13;727.30;;;663.88;;
47381;SDS011;33128;51.580;5.170;2023-05-10T23:19:38;690.30;;;629.50;;
47381;SDS011;33128;51.580;5.170;2023-05-10T23:22:19;724.25;;;661.55;;
47381;SDS011;33128;51.580;5.170;2023-05-10T23:24:45;713.45;;;651.17;;
47381;SDS011;33128;51.580;5.170;2023-05-10T23:27:11;684.83;;;623.90;;
47381;SDS011;33128;51.580;5.170;2023-05-10T23:29:36;678.85;;;618.60;;
47381;SDS011;33128;51.580;5.170;2023-05-10T23:32:02;711.70;;;648.63;;
47381;SDS011;33128;51.580;5.170;2023-05-10T23:34:28;750.65;;;686.10;;
47381;SDS011;33128;51.580;5.170;2023-05-10T23:36:54;731.33;;;667.60;;
47381;SDS011;33128;51.580;5.170;2023-05-10T23:39:20;728.45;;;665.03;;
47381;SDS011;33128;51.580;5.170;2023-05-10T23:41:46;711.40;;;648.95;;
47381;SDS011;33128;51.580;5.170;2023-05-10T23:44:11;704.60;;;642.60;;
47381;SDS011;33128;51.580;5.170;2023-05-10T23:46:37;734.55;;;670.95;;
47381;SDS011;33128;51.580;5.170;2023-05-10T23:49:03;787.78;;;722.42;;
47381;SDS011;33128;51.580;5.170;2023-05-10T23:51:30;694.53;;;633.03;;
47381;SDS011;33128;51.580;5.170;2023-05-10T23:53:56;710.53;;;649.50;;
47381;SDS011;33128;51.580;5.170;2023-05-10T23:56:23;697.10;;;635.45;;
47381;SDS011;33128;51.580;5.170;2023-05-10T23:58:48;686.95;;;625.55;;
